Time;durP1;ratioP1;P1;durP2;ratioP2;P2;SDS_P1;SDS_P2;PMS_P1;PMS_P2;Temp;Humidity;BMP_temperature;BMP_pressure;BME280_temperature;BME280_humidity;BME280_pressure;Samples;Min_cycle;Max_cycle;Signal;HPM_P1;HPM_P2
2023/03/04 00:00:20;;;;;;;;;;;;;;;17.88;57.13;98658.06;2063488;28;20216;-57
2023/03/04 00:01:22;;;;;;;;;;;;;;;17.86;57.12;98665.50;2066083;28;20517;-52
2023/03/04 00:02:22;;;;;;;;;;;;;;;17.85;57.06;98658.47;2063278;28;19929;-52
2023/03/04 00:03:23;;;;;;;;;;;;;;;17.85;57.21;98667.34;2064716;28;19979;-55
2023/03/04 00:04:24;;;;;;;;;;;;;;;17.84;57.25;98662.19;2064423;28;19929;-56
2023/03/04 00:05:25;;;;;;;;;;;;;;;17.81;57.17;98663.41;2065893;28;20635;-53
2023/03/04 00:06:26;;;;;;;;;;;;;;;17.82;57.19;98664.25;2065690;28;19929;-58
2023/03/04 00:07:27;;;;;;;;;;;;;;;17.81;57.13;98667.97;2066063;28;20003;-55
2023/03/04 00:08:28;;;;;;;;;;;;;;;17.79;57.19;98664.63;2062828;28;20407;-55
2023/03/04 00:09:29;;;;;;;;;;;;;;;17.78;56.99;98665.63;2062731;28;19929;-63
2023/03/04 00:10:30;;;;;;;;;;;;;;;17.77;57.13;98666.66;2063356;28;20384;-56
2023/03/04 00:11:32;;;;;;;;;;;;;;;17.78;57.21;98671.00;2069234;28;19929;-56
2023/03/04 00:12:32;;;;;;;;;;;;;;;17.75;57.01;98664.19;2064090;28;20399;-58
2023/03/04 00:13:34;;;;;;;;;;;;;;;17.74;57.02;98664.38;2060580;28;19929;-52
2023/03/04 00:14:35;;;;;;;;;;;;;;;17.72;57.16;98663.72;2062577;28;20665;-56
2023/03/04 00:15:37;;;;;;;;;;;;;;;17.74;57.18;98669.72;2064384;28;19961;-55
2023/03/04 00:16:37;;;;;;;;;;;;;;;17.72;57.13;98666.41;2064495;28;19982;-53
2023/03/04 00:17:39;;;;;;;;;;;;;;;17.71;57.08;98667.44;2064782;28;19979;-55
2023/03/04 00:18:39;;;;;;;;;;;;;;;17.70;57.06;98671.16;2063276;28;20051;-56
2023/03/04 00:19:41;;;;;;;;;;;;;;;17.69;57.07;98664.97;2064932;28;20547;-56
2023/03/04 00:20:41;;;;;;;;;;;;;;;17.69;57.22;98672.16;2062584;28;19978;-53
2023/03/04 00:21:43;;;;;;;;;;;;;;;17.69;57.04;98669.47;2065580;28;19933;-52
2023/03/04 00:22:43;;;;;;;;;;;;;;;17.67;57.00;98663.50;2063641;28;20028;-54
2023/03/04 00:23:45;;;;;;;;;;;;;;;17.63;57.21;98666.59;2063686;28;19929;-53
2023/03/04 00:24:45;;;;;;;;;;;;;;;17.63;57.16;98666.59;2064604;28;20230;-54
2023/03/04 00:25:47;;;;;;;;;;;;;;;17.61;57.16;98665.13;2062182;28;20979;-55
2023/03/04 00:26:47;;;;;;;;;;;;;;;17.64;57.12;98667.41;2069038;28;19951;-56
2023/03/04 00:27:49;;;;;;;;;;;;;;;17.62;57.23;98672.13;2064072;28;19966;-54
2023/03/04 00:28:49;;;;;;;;;;;;;;;17.61;57.19;98668.63;2065012;28;19933;-55
2023/03/04 00:29:52;;;;;;;;;;;;;;;17.58;57.08;98669.03;2064458;28;19971;-56
2023/03/04 00:30:52;;;;;;;;;;;;;;;17.56;57.21;98668.38;2063859;28;19929;-55
2023/03/04 00:31:54;;;;;;;;;;;;;;;17.57;57.21;98667.34;2065121;28;20382;-55
2023/03/04 00:32:54;;;;;;;;;;;;;;;17.55;57.04;98666.75;2064456;28;20659;-54
2023/03/04 00:33:56;;;;;;;;;;;;;;;17.55;57.12;98664.06;2064309;28;19929;-52
2023/03/04 00:34:56;;;;;;;;;;;;;;;17.53;57.13;98660.72;2064598;28;19932;-54
2023/03/04 00:35:58;;;;;;;;;;;;;;;17.50;57.18;98663.81;2065236;28;19929;-53
2023/03/04 00:37:00;;;;;;;;;;;;;;;17.52;57.32;98661.75;2063673;28;19929;-51
2023/03/04 00:38:01;;;;;;;;;;;;;;;17.53;57.23;98662.59;2062101;28;19933;-52
2023/03/04 00:39:03;;;;;;;;;;;;;;;17.51;57.20;98660.09;2064486;28;20517;-55
2023/03/04 00:40:05;;;;;;;;;;;;;;;17.49;57.21;98658.63;2063741;28;20896;-53
2023/03/04 00:41:05;;;;;;;;;;;;;;;17.49;57.33;98659.44;2062770;28;19929;-54
2023/03/04 00:42:07;;;;;;;;;;;;;;;17.46;57.24;98659.03;2067741;28;19929;-54
2023/03/04 00:43:07;;;;;;;;;;;;;;;17.46;57.29;98656.34;2068183;28;20449;-54
2023/03/04 00:44:09;;;;;;;;;;;;;;;17.45;57.38;98660.88;2065535;28;19925;-55
2023/03/04 00:45:11;;;;;;;;;;;;;;;17.44;57.29;98651.19;2062349;28;19979;-53
2023/03/04 00:46:12;;;;;;;;;;;;;;;17.42;57.26;98659.41;2065865;28;19986;-57
2023/03/04 00:47:12;;;;;;;;;;;;;;;17.42;57.45;98653.22;2072776;28;19947;-58
2023/03/04 00:48:15;;;;;;;;;;;;;;;17.42;57.19;98653.22;2074063;28;19929;-53
2023/03/04 00:49:15;;;;;;;;;;;;;;;17.43;57.26;98661.06;2074840;28;19933;-57
2023/03/04 00:50:17;;;;;;;;;;;;;;;17.40;57.25;98657.94;2074714;28;20027;-56
2023/03/04 00:51:17;;;;;;;;;;;;;;;17.40;57.22;98649.91;2075009;28;19929;-55
2023/03/04 00:52:19;;;;;;;;;;;;;;;17.38;57.28;98658.16;2075402;28;20342;-55
2023/03/04 00:53:19;;;;;;;;;;;;;;;17.39;57.22;98659.81;2074580;28;20006;-53
2023/03/04 00:54:21;;;;;;;;;;;;;;;17.36;57.28;98649.47;2075237;28;19975;-52
2023/03/04 00:55:21;;;;;;;;;;;;;;;17.36;57.23;98648.66;2075035;28;19994;-54
2023/03/04 00:56:23;;;;;;;;;;;;;;;17.34;57.29;98656.06;2074767;28;19933;-55
2023/03/04 00:57:23;;;;;;;;;;;;;;;17.31;57.36;98651.09;2075133;28;19986;-56
2023/03/04 00:58:24;;;;;;;;;;;;;;;17.31;57.37;98645.72;2074359;28;19929;-53
2023/03/04 00:59:25;;;;;;;;;;;;;;;17.32;57.41;98652.72;2075427;28;19939;-52
2023/03/04 01:00:28;;;;;;;;;;;;;;;17.31;57.30;98651.09;2074490;28;20648;-49
2023/03/04 01:01:28;;;;;;;;;;;;;;;17.31;57.44;98651.09;2073875;28;19929;-63
2023/03/04 01:02:30;;;;;;;;;;;;;;;17.28;57.50;98656.84;2075131;28;19933;-53
2023/03/04 01:03:31;;;;;;;;;;;;;;;17.28;57.57;98651.47;2076216;28;20347;-52
2023/03/04 01:04:32;;;;;;;;;;;;;;;17.24;57.29;98661.75;2075254;28;21484;-56
2023/03/04 01:05:34;;;;;;;;;;;;;;;17.27;57.50;98650.63;2074574;28;20639;-53
2023/03/04 01:06:36;;;;;;;;;;;;;;;17.25;57.38;98652.69;2075413;28;19929;-55
2023/03/04 01:07:36;;;;;;;;;;;;;;;17.25;57.46;98646.50;2075286;28;19925;-54
2023/03/04 01:08:38;;;;;;;;;;;;;;;17.23;57.39;98648.53;2074030;28;20430;-54
2023/03/04 01:09:39;;;;;;;;;;;;;;;17.20;57.42;98644.41;2074521;28;19929;-56
2023/03/04 01:10:40;;;;;;;;;;;;;;;17.19;57.57;98642.75;2073559;28;19928;-54
2023/03/04 01:11:41;;;;;;;;;;;;;;;17.17;57.52;98645.63;2075388;28;20494;-52
2023/03/04 01:12:42;;;;;;;;;;;;;;;17.15;57.50;98642.28;2074534;28;19933;-56
2023/03/04 01:13:43;;;;;;;;;;;;;;;17.15;57.52;98647.66;2073738;28;19929;-54
2023/03/04 01:14:44;;;;;;;;;;;;;;;17.15;57.64;98646.81;2075005;28;20010;-53
2023/03/04 01:15:46;;;;;;;;;;;;;;;17.16;57.50;98645.78;2075398;28;19937;-53
2023/03/04 01:16:48;;;;;;;;;;;;;;;17.13;57.64;98644.34;2074126;28;19936;-53
2023/03/04 01:17:49;;;;;;;;;;;;;;;17.12;57.64;98636.50;2070268;28;20668;-54
2023/03/04 01:18:50;;;;;;;;;;;;;;;17.11;57.49;98638.34;2066234;28;19933;-53
2023/03/04 01:19:51;;;;;;;;;;;;;;;17.10;57.67;98639.34;2069601;28;19929;-52
2023/03/04 01:20:52;;;;;;;;;;;;;;;17.10;57.68;98633.19;2074606;28;19995;-53
2023/03/04 01:21:53;;;;;;;;;;;;;;;17.09;57.51;98635.03;2069576;28;19925;-54
2023/03/04 01:22:54;;;;;;;;;;;;;;;17.10;57.65;98634.00;2065961;28;19975;-51
2023/03/04 01:23:55;;;;;;;;;;;;;;;17.09;57.51;98636.88;2061525;28;22044;-51
2023/03/04 01:24:56;;;;;;;;;;;;;;;17.08;57.71;98635.25;2064629;28;19999;-52
2023/03/04 01:25:56;;;;;;;;;;;;;;;17.07;57.52;98634.38;2065092;28;19937;-54
2023/03/04 01:26:58;;;;;;;;;;;;;;;17.05;57.53;98633.78;2065679;28;19997;-52
2023/03/04 01:27:58;;;;;;;;;;;;;;;17.07;57.61;98628.19;2067868;28;19925;-52
2023/03/04 01:29:00;;;;;;;;;;;;;;;17.06;57.52;98623.88;2071305;28;19925;-55
2023/03/04 01:30:00;;;;;;;;;;;;;;;17.02;57.63;98626.13;2063267;28;19981;-56
2023/03/04 01:31:03;;;;;;;;;;;;;;;17.00;57.68;98628.16;2066165;28;20989;-55
2023/03/04 01:32:04;;;;;;;;;;;;;;;16.98;57.71;98624.84;2065034;28;19943;-54
2023/03/04 01:33:06;;;;;;;;;;;;;;;16.96;57.70;98622.34;2065942;28;20098;-51
2023/03/04 01:34:08;;;;;;;;;;;;;;;16.96;57.74;98625.03;2065004;28;19929;-51
2023/03/04 01:35:10;;;;;;;;;;;;;;;16.95;57.75;98619.88;2062224;28;19928;-52
2023/03/04 01:36:10;;;;;;;;;;;;;;;16.93;57.72;98621.91;2064094;28;20028;-52
2023/03/04 01:37:12;;;;;;;;;;;;;;;16.93;57.80;98624.59;2064658;28;20362;-52
2023/03/04 01:38:13;;;;;;;;;;;;;;;16.93;57.73;98616.53;2068823;28;20448;-51
2023/03/04 01:39:14;;;;;;;;;;;;;;;16.92;57.59;98622.94;2066825;28;19937;-54
2023/03/04 01:40:15;;;;;;;;;;;;;;;16.92;57.68;98623.75;2061522;28;20793;-53
2023/03/04 01:41:18;;;;;;;;;;;;;;;16.91;57.76;98624.78;2063462;28;19929;-52
2023/03/04 01:42:20;;;;;;;;;;;;;;;16.90;57.68;98622.28;2065041;28;19937;-54
2023/03/04 01:43:24;;;;;;;;;;;;;;;16.89;57.67;98620.66;2064968;28;20450;-51
2023/03/04 01:44:25;;;;;;;;;;;;;;;16.87;57.57;98620.81;2070879;28;19986;-54
2023/03/04 01:45:26;;;;;;;;;;;;;;;16.88;57.70;98618.97;2061506;28;19983;-53
2023/03/04 01:46:29;;;;;;;;;;;;;;;16.87;57.79;98611.97;2065990;28;19937;-54
2023/03/04 01:47:32;;;;;;;;;;;;;;;16.87;57.61;98617.31;2065555;28;19983;-54
2023/03/04 01:48:35;;;;;;;;;;;;;;;16.92;57.54;98609.53;2064807;28;19932;-53
2023/03/04 01:49:37;;;;;;;;;;;;;;;16.89;57.59;98620.66;2065844;28;19964;-52
2023/03/04 01:50:38;;;;;;;;;;;;;;;16.86;57.80;98621.03;2063159;28;19936;-54
2023/03/04 01:51:48;;;;;;;;;;;;;;;16.83;57.83;98616.06;2064124;28;19925;-54
2023/03/04 01:52:48;;;;;;;;;;;;;;;16.83;57.89;98621.41;2063031;28;20807;-57
2023/03/04 01:53:52;;;;;;;;;;;;;;;16.83;57.75;98611.53;2066576;28;19933;-54
2023/03/04 01:54:52;;;;;;;;;;;;;;;16.81;57.80;98623.47;2065870;28;20749;-53
2023/03/04 01:55:55;;;;;;;;;;;;;;;16.79;58.04;98614.78;2064011;28;19932;-53
2023/03/04 01:56:57;;;;;;;;;;;;;;;16.79;57.86;98615.59;2064837;28;19925;-56
2023/03/04 01:57:59;;;;;;;;;;;;;;;16.78;57.81;98615.81;2064724;28;20319;-54
2023/03/04 01:59:07;;;;;;;;;;;;;;;16.77;57.83;98611.44;2064954;28;19929;-52
2023/03/04 02:00:18;;;;;;;;;;;;;;;16.78;57.80;98618.50;2070358;28;20494;-55
2023/03/04 02:01:18;;;;;;;;;;;;;;;16.77;57.74;98611.44;2063566;28;19936;-54
2023/03/04 02:02:21;;;;;;;;;;;;;;;16.77;57.73;98616.81;2065816;28;20470;-54
2023/03/04 02:03:22;;;;;;;;;;;;;;;16.75;57.77;98615.13;2063819;28;19995;-50
2023/03/04 02:04:24;;;;;;;;;;;;;;;16.76;57.81;98610.59;2064980;28;20713;-54
2023/03/04 02:05:26;;;;;;;;;;;;;;;16.73;57.78;98614.47;2054419;28;20932;-52
2023/03/04 02:06:27;;;;;;;;;;;;;;;16.73;57.79;98608.31;2063810;28;20067;-55
2023/03/04 02:07:28;;;;;;;;;;;;;;;16.72;57.95;98620.06;2063458;28;19970;-52
2023/03/04 02:08:29;;;;;;;;;;;;;;;16.70;58.01;98617.56;2064289;28;19929;-55
2023/03/04 02:09:30;;;;;;;;;;;;;;;16.68;57.84;98608.03;2065515;28;20408;-54
2023/03/04 02:10:32;;;;;;;;;;;;;;;16.68;57.92;98616.91;2061608;28;19929;-54
2023/03/04 02:11:33;;;;;;;;;;;;;;;16.68;57.88;98606.19;2062689;28;20516;-53
2023/03/04 02:12:34;;;;;;;;;;;;;;;16.68;57.92;98614.22;2065064;28;19929;-54
2023/03/04 02:13:36;;;;;;;;;;;;;;;16.67;57.85;98606.41;2062926;28;20014;-54
2023/03/04 02:14:37;;;;;;;;;;;;;;;16.65;57.95;98603.91;2063982;28;19933;-54
2023/03/04 02:15:39;;;;;;;;;;;;;;;16.67;57.71;98609.06;2068219;28;19991;-52
2023/03/04 02:16:39;;;;;;;;;;;;;;;16.67;57.79;98609.06;2062652;28;19971;-55
2023/03/04 02:17:42;;;;;;;;;;;;;;;16.66;57.84;98605.56;2065264;28;19934;-51
2023/03/04 02:18:43;;;;;;;;;;;;;;;16.63;58.06;98605.09;2063506;28;21367;-53
2023/03/04 02:19:50;;;;;;;;;;;;;;;16.63;57.79;98605.09;2063536;28;19941;-54
2023/03/04 02:20:56;;;;;;;;;;;;;;;16.61;57.82;98602.63;2062125;28;19987;-52
2023/03/04 02:21:56;;;;;;;;;;;;;;;16.62;57.90;98601.59;2064696;28;19940;-54
2023/03/04 02:23:01;;;;;;;;;;;;;;;16.59;57.70;98604.66;2066094;28;20020;-53
2023/03/04 02:24:09;;;;;;;;;;;;;;;16.61;57.83;98610.69;2063714;28;19994;-52
2023/03/04 02:25:14;;;;;;;;;;;;;;;16.61;57.57;98599.97;2061823;28;19933;-54
2023/03/04 02:26:16;;;;;;;;;;;;;;;16.61;57.67;98604.50;2064389;28;19937;-55
2023/03/04 02:27:18;;;;;;;;;;;;;;;16.61;57.54;98605.31;2061526;28;19957;-51
2023/03/04 02:28:18;;;;;;;;;;;;;;;16.61;57.69;98610.69;2063542;28;19983;-55
2023/03/04 02:29:20;;;;;;;;;;;;;;;16.59;57.59;98602.00;2065412;28;19979;-52
2023/03/04 02:30:22;;;;;;;;;;;;;;;16.61;57.69;98601.81;2066779;28;19936;-54
2023/03/04 02:31:25;;;;;;;;;;;;;;;16.61;57.62;98607.16;2064548;28;19933;-55
2023/03/04 02:32:25;;;;;;;;;;;;;;;16.59;57.58;98607.34;2061450;28;19976;-52
2023/03/04 02:33:27;;;;;;;;;;;;;;;16.58;57.80;98608.38;2062865;28;19929;-55
2023/03/04 02:34:29;;;;;;;;;;;;;;;16.58;57.60;98602.19;2063865;28;20120;-50
2023/03/04 02:35:30;;;;;;;;;;;;;;;16.58;57.69;98605.69;2065166;28;19937;-53
2023/03/04 02:36:31;;;;;;;;;;;;;;;16.57;57.72;98606.69;2063052;28;19929;-56
2023/03/04 02:37:33;;;;;;;;;;;;;;;16.57;57.75;98597.84;2068963;28;19940;-52
2023/03/04 02:38:33;;;;;;;;;;;;;;;16.53;57.70;98600.09;2064161;28;19929;-52
2023/03/04 02:39:36;;;;;;;;;;;;;;;16.52;57.52;98601.94;2073094;28;19991;-55
2023/03/04 02:40:38;;;;;;;;;;;;;;;16.53;57.75;98600.09;2071568;28;20338;-54
2023/03/04 02:41:41;;;;;;;;;;;;;;;16.54;57.62;98599.06;2075313;28;20055;-54
2023/03/04 02:42:42;;;;;;;;;;;;;;;16.52;57.52;98595.75;2074134;28;19941;-54
2023/03/04 02:43:44;;;;;;;;;;;;;;;16.50;57.72;98601.28;2073904;28;19925;-52
2023/03/04 02:44:47;;;;;;;;;;;;;;;16.51;57.76;98597.59;2067100;28;19930;-55
2023/03/04 02:45:49;;;;;;;;;;;;;;;16.51;57.70;98596.75;2072860;28;19929;-53
2023/03/04 02:46:50;;;;;;;;;;;;;;;16.47;57.79;98600.84;2074131;28;19929;-52
2023/03/04 02:47:50;;;;;;;;;;;;;;;16.46;57.77;98597.31;2075004;28;19933;-53
2023/03/04 02:48:52;;;;;;;;;;;;;;;16.49;57.68;98604.16;2072092;28;19960;-52
2023/03/04 02:49:53;;;;;;;;;;;;;;;16.46;57.63;98591.16;2072983;28;20610;-54
2023/03/04 02:50:54;;;;;;;;;;;;;;;16.45;57.77;98592.19;2070691;28;19997;-55
2023/03/04 02:51:58;;;;;;;;;;;;;;;16.46;57.69;98593.81;2068290;28;19929;-52
2023/03/04 02:52:59;;;;;;;;;;;;;;;16.44;57.83;98595.88;2073539;28;20016;-54
2023/03/04 02:54:00;;;;;;;;;;;;;;;16.43;57.79;98594.22;2072036;28;20016;-53
2023/03/04 02:55:01;;;;;;;;;;;;;;;16.43;57.83;98588.84;2072652;28;19944;-54
2023/03/04 02:56:02;;;;;;;;;;;;;;;16.43;57.69;98594.22;2072843;28;19929;-54
2023/03/04 02:57:06;;;;;;;;;;;;;;;16.43;57.83;98594.22;2072951;28;19929;-55
2023/03/04 02:58:06;;;;;;;;;;;;;;;16.43;57.70;98594.22;2063688;28;21225;-54
2023/03/04 02:59:08;;;;;;;;;;;;;;;16.41;57.64;98597.09;2062423;28;19933;-54
2023/03/04 03:00:09;;;;;;;;;;;;;;;16.39;57.88;98588.41;2064969;28;19941;-53
2023/03/04 03:01:11;;;;;;;;;;;;;;;16.38;57.90;98591.25;2064308;28;19929;-54
2023/03/04 03:02:11;;;;;;;;;;;;;;;16.37;57.81;98592.28;2068504;28;19925;-54
2023/03/04 03:03:13;;;;;;;;;;;;;;;16.36;57.78;98594.16;2065533;28;20377;-51
2023/03/04 03:04:13;;;;;;;;;;;;;;;16.36;57.87;98593.31;2062560;28;19932;-53
2023/03/04 03:05:15;;;;;;;;;;;;;;;16.35;57.75;98589.78;2063886;28;19933;-57
2023/03/04 03:06:15;;;;;;;;;;;;;;;16.35;57.75;98589.78;2066632;28;19933;-53
2023/03/04 03:07:17;;;;;;;;;;;;;;;16.36;57.94;98591.47;2063762;28;19929;-54
2023/03/04 03:08:17;;;;;;;;;;;;;;;16.35;57.83;98591.66;2063683;28;20272;-56
2023/03/04 03:09:19;;;;;;;;;;;;;;;16.33;57.67;98593.72;2066201;28;20015;-54
2023/03/04 03:10:19;;;;;;;;;;;;;;;16.31;57.82;98586.69;2071622;28;19933;-54
2023/03/04 03:11:21;;;;;;;;;;;;;;;16.31;57.86;98586.69;2055089;28;20007;-57
2023/03/04 03:12:22;;;;;;;;;;;;;;;16.33;57.75;98585.69;2061180;28;19933;-52
2023/03/04 03:13:24;;;;;;;;;;;;;;;16.31;57.76;98589.34;2062251;28;19933;-54
2023/03/04 03:14:24;;;;;;;;;;;;;;;16.30;57.69;98584.22;2063967;28;19937;-51
2023/03/04 03:15:26;;;;;;;;;;;;;;;16.30;57.83;98585.03;2073440;28;20647;-56
2023/03/04 03:16:26;;;;;;;;;;;;;;;16.29;57.84;98585.22;2072695;28;19929;-51
2023/03/04 03:17:28;;;;;;;;;;;;;;;16.28;57.87;98592.41;2072238;28;20431;-57
2023/03/04 03:18:29;;;;;;;;;;;;;;;16.27;57.70;98582.75;2074816;28;19929;-57
2023/03/04 03:19:30;;;;;;;;;;;;;;;16.27;57.72;98580.06;2064341;28;20992;-52
2023/03/04 03:20:31;;;;;;;;;;;;;;;16.28;58.12;98592.41;2063405;28;19933;-53
2023/03/04 03:21:32;;;;;;;;;;;;;;;16.28;57.91;98591.59;2074310;28;20861;-52
2023/03/04 03:22:33;;;;;;;;;;;;;;;16.26;57.73;98586.41;2071749;28;19932;-52
2023/03/04 03:23:34;;;;;;;;;;;;;;;16.26;57.69;98593.63;2065674;28;20369;-52
2023/03/04 03:24:35;;;;;;;;;;;;;;;16.24;57.83;98588.47;2064158;28;19977;-55
2023/03/04 03:25:36;;;;;;;;;;;;;;;16.24;57.74;98595.66;2065360;28;19937;-52
2023/03/04 03:26:38;;;;;;;;;;;;;;;16.24;58.00;98596.50;2061592;28;19929;-55
2023/03/04 03:27:41;;;;;;;;;;;;;;;16.25;57.85;98594.66;2064391;28;19925;-54
2023/03/04 03:28:42;;;;;;;;;;;;;;;16.23;57.88;98592.16;2062259;28;20027;-54
2023/03/04 03:29:43;;;;;;;;;;;;;;;16.22;57.90;98598.53;2064952;28;19975;-54
2023/03/04 03:30:43;;;;;;;;;;;;;;;16.21;57.68;98593.34;2063524;28;20566;-56
2023/03/04 03:31:45;;;;;;;;;;;;;;;16.21;57.92;98596.84;2062534;28;19929;-53
2023/03/04 03:32:45;;;;;;;;;;;;;;;16.21;57.92;98591.50;2067421;28;20418;-56
2023/03/04 03:33:47;;;;;;;;;;;;;;;16.19;57.72;98593.56;2063718;28;19925;-53
2023/03/04 03:34:47;;;;;;;;;;;;;;;16.22;57.66;98598.53;2063931;28;19959;-53
2023/03/04 03:35:49;;;;;;;;;;;;;;;16.20;57.93;98605.91;2062457;28;19964;-50
2023/03/04 03:36:49;;;;;;;;;;;;;;;16.17;57.87;98600.94;2061769;28;20289;-52
2023/03/04 03:37:51;;;;;;;;;;;;;;;16.15;57.76;98597.63;2065902;28;20014;-55
2023/03/04 03:38:51;;;;;;;;;;;;;;;16.18;57.68;98588.38;2062955;28;19928;-55
2023/03/04 03:39:53;;;;;;;;;;;;;;;16.16;57.90;98601.13;2061430;28;19933;-53
2023/03/04 03:40:53;;;;;;;;;;;;;;;16.14;57.71;98604.00;2062250;28;19928;-53
2023/03/04 03:41:55;;;;;;;;;;;;;;;16.15;57.81;98591.44;2064277;28;19929;-53
2023/03/04 03:42:56;;;;;;;;;;;;;;;16.13;57.78;98605.03;2057883;28;20419;-50
2023/03/04 03:43:58;;;;;;;;;;;;;;;16.14;57.94;98601.31;2063257;28;19990;-55
2023/03/04 03:44:58;;;;;;;;;;;;;;;16.13;58.02;98594.31;2057300;28;19929;-56
2023/03/04 03:46:00;;;;;;;;;;;;;;;16.13;57.86;98599.66;2060349;28;20010;-54
2023/03/04 03:47:00;;;;;;;;;;;;;;;16.13;57.78;98599.66;2063490;28;20391;-55
2023/03/04 03:48:02;;;;;;;;;;;;;;;16.14;57.81;98598.63;2062683;28;19929;-52
2023/03/04 03:49:02;;;;;;;;;;;;;;;16.13;57.80;98596.13;2063263;28;19972;-52
2023/03/04 03:50:04;;;;;;;;;;;;;;;16.13;57.85;98598.81;2059045;28;20393;-54
2023/03/04 03:51:04;;;;;;;;;;;;;;;16.12;57.77;98597.16;2061419;28;19933;-56
2023/03/04 03:52:07;;;;;;;;;;;;;;;16.11;57.90;98601.69;2061155;28;20570;-58
2023/03/04 03:53:07;;;;;;;;;;;;;;;16.10;57.99;98594.66;2050990;28;20521;-56
2023/03/04 03:54:09;;;;;;;;;;;;;;;16.09;57.83;98599.19;2060531;28;20019;-57
2023/03/04 03:55:10;;;;;;;;;;;;;;;16.09;57.95;98601.88;2066156;28;22241;-57
2023/03/04 03:56:11;;;;;;;;;;;;;;;16.08;57.98;98597.53;2060783;28;20007;-53
2023/03/04 03:57:12;;;;;;;;;;;;;;;16.07;57.94;98598.56;2060793;28;20875;-57
2023/03/04 03:58:14;;;;;;;;;;;;;;;16.06;58.01;98594.22;2058725;28;19979;-54
2023/03/04 03:59:16;;;;;;;;;;;;;;;16.05;57.90;98589.06;2058258;28;19934;-57
2023/03/04 04:00:17;;;;;;;;;;;;;;;16.05;57.82;98597.09;2062345;28;19982;-50
2023/03/04 04:01:18;;;;;;;;;;;;;;;16.04;57.89;98595.44;2068962;28;19932;-54
2023/03/04 04:02:19;;;;;;;;;;;;;;;16.04;58.10;98595.44;2062759;28;19934;-53
2023/03/04 04:03:21;;;;;;;;;;;;;;;16.06;58.00;98598.75;2059952;28;20367;-55
2023/03/04 04:04:21;;;;;;;;;;;;;;;16.04;57.82;98601.59;2062858;28;19979;-55
2023/03/04 04:05:23;;;;;;;;;;;;;;;16.03;57.75;98593.78;2060948;28;19937;-54
2023/03/04 04:06:23;;;;;;;;;;;;;;;16.02;57.73;98603.66;2063106;28;19925;-55
2023/03/04 04:07:25;;;;;;;;;;;;;;;16.01;58.05;98599.31;2058519;28;19929;-54
2023/03/04 04:08:26;;;;;;;;;;;;;;;16.02;57.87;98602.84;2058474;28;19945;-55
2023/03/04 04:09:27;;;;;;;;;;;;;;;16.02;57.83;98597.47;2061735;28;19941;-54
2023/03/04 04:10:28;;;;;;;;;;;;;;;16.01;57.90;98601.16;2059486;28;20611;-52
2023/03/04 04:11:29;;;;;;;;;;;;;;;16.00;57.83;98602.19;2061201;28;19937;-54
2023/03/04 04:12:30;;;;;;;;;;;;;;;16.02;57.82;98602.84;2064488;28;19929;-54
2023/03/04 04:13:33;;;;;;;;;;;;;;;16.00;57.92;98602.19;2057113;28;19936;-51
2023/03/04 04:14:33;;;;;;;;;;;;;;;16.00;57.99;98604.84;2059330;28;19933;-51
2023/03/04 04:15:35;;;;;;;;;;;;;;;16.01;58.09;98598.47;2059948;28;20882;-53
2023/03/04 04:16:35;;;;;;;;;;;;;;;15.98;57.99;98599.69;2069872;28;19929;-51
2023/03/04 04:17:37;;;;;;;;;;;;;;;15.99;57.80;98597.81;2069918;28;20008;-51
2023/03/04 04:18:37;;;;;;;;;;;;;;;15.98;57.76;98604.22;2065061;28;20068;-56
2023/03/04 04:19:39;;;;;;;;;;;;;;;16.00;57.96;98605.69;2062027;28;20119;-50
2023/03/04 04:20:39;;;;;;;;;;;;;;;15.99;57.91;98597.81;2061132;28;19939;-50
2023/03/04 04:21:41;;;;;;;;;;;;;;;15.97;57.87;98606.06;2063946;28;20929;-51
2023/03/04 04:22:41;;;;;;;;;;;;;;;15.98;57.96;98609.56;2064627;28;20061;-53
2023/03/04 04:23:43;;;;;;;;;;;;;;;15.96;57.95;98599.03;2066432;28;20014;-57
2023/03/04 04:24:44;;;;;;;;;;;;;;;15.93;57.79;98601.25;2062892;28;20868;-53
2023/03/04 04:25:45;;;;;;;;;;;;;;;15.91;57.83;98606.81;2063052;28;19933;-55
2023/03/04 04:26:45;;;;;;;;;;;;;;;15.91;57.83;98603.28;2066161;28;19978;-54
2023/03/04 04:27:47;;;;;;;;;;;;;;;15.90;58.16;98599.78;2066115;28;19952;-52
2023/03/04 04:28:49;;;;;;;;;;;;;;;15.92;57.82;98602.28;2066142;28;19929;-54
2023/03/04 04:29:50;;;;;;;;;;;;;;;15.91;57.90;98603.28;2063554;28;20034;-50
2023/03/04 04:30:51;;;;;;;;;;;;;;;15.92;57.89;98603.09;2066223;28;19933;-55
2023/03/04 04:31:52;;;;;;;;;;;;;;;15.92;57.83;98602.28;2064020;28;19987;-57
2023/03/04 04:32:53;;;;;;;;;;;;;;;15.92;58.01;98604.97;2066720;28;19952;-57
2023/03/04 04:33:54;;;;;;;;;;;;;;;15.90;58.07;98605.13;2067561;28;19929;-57
2023/03/04 04:34:55;;;;;;;;;;;;;;;15.88;58.02;98603.66;2064427;28;20477;-56
2023/03/04 04:35:56;;;;;;;;;;;;;;;15.89;57.97;98597.31;2064618;28;20018;-54
2023/03/04 04:36:57;;;;;;;;;;;;;;;15.88;58.11;98604.50;2064895;28;20834;-52
2023/03/04 04:37:58;;;;;;;;;;;;;;;15.89;58.01;98610.69;2064767;28;19933;-53
2023/03/04 04:38:59;;;;;;;;;;;;;;;15.87;57.94;98605.50;2066653;28;19933;-56
2023/03/04 04:40:00;;;;;;;;;;;;;;;15.86;58.08;98610.03;2065998;28;19933;-54
2023/03/04 04:41:01;;;;;;;;;;;;;;;15.85;57.87;98613.75;2064919;28;19925;-56
2023/03/04 04:42:02;;;;;;;;;;;;;;;15.85;58.03;98610.22;2066704;28;20046;-51
2023/03/04 04:43:04;;;;;;;;;;;;;;;15.86;57.92;98603.84;2064900;28;19933;-57
2023/03/04 04:44:07;;;;;;;;;;;;;;;15.85;57.93;98608.38;2054877;28;19983;-56
2023/03/04 04:45:09;;;;;;;;;;;;;;;15.84;57.86;98601.34;2061912;28;19936;-54
2023/03/04 04:46:09;;;;;;;;;;;;;;;15.84;58.19;98608.56;2068609;28;20482;-50
2023/03/04 04:47:11;;;;;;;;;;;;;;;15.81;58.06;98607.09;2075228;28;19971;-54
2023/03/04 04:48:11;;;;;;;;;;;;;;;15.80;58.00;98608.09;2074387;28;19983;-51
2023/03/04 04:49:13;;;;;;;;;;;;;;;15.79;57.83;98609.09;2074814;28;20058;-54
2023/03/04 04:50:13;;;;;;;;;;;;;;;15.81;57.87;98611.59;2074434;28;19979;-55
2023/03/04 04:51:14;;;;;;;;;;;;;;;15.82;57.85;98608.75;2072317;28;19987;-54
2023/03/04 04:52:15;;;;;;;;;;;;;;;15.80;58.08;98610.78;2074472;28;20004;-58
2023/03/04 04:53:16;;;;;;;;;;;;;;;15.81;58.06;98615.09;2075204;28;19966;-53
2023/03/04 04:54:17;;;;;;;;;;;;;;;15.80;58.15;98609.97;2073830;28;19940;-55
2023/03/04 04:55:18;;;;;;;;;;;;;;;15.80;57.89;98613.47;2074059;28;19929;-55
2023/03/04 04:56:20;;;;;;;;;;;;;;;15.78;57.89;98602.09;2075527;28;20466;-54
2023/03/04 04:57:21;;;;;;;;;;;;;;;15.79;57.93;98614.47;2075172;28;20013;-54
2023/03/04 04:58:22;;;;;;;;;;;;;;;15.79;57.91;98609.09;2075038;28;19940;-56
2023/03/04 04:59:24;;;;;;;;;;;;;;;15.76;57.81;98605.97;2075560;28;19929;-56
2023/03/04 05:00:26;;;;;;;;;;;;;;;15.79;57.79;98601.09;2075291;28;20024;-55
2023/03/04 05:01:26;;;;;;;;;;;;;;;15.78;57.98;98606.63;2074854;28;19929;-52
2023/03/04 05:02:28;;;;;;;;;;;;;;;15.75;57.95;98604.34;2074304;28;20337;-55
2023/03/04 05:03:28;;;;;;;;;;;;;;;15.77;58.04;98611.16;2073809;28;19929;-56
2023/03/04 05:04:30;;;;;;;;;;;;;;;15.76;58.01;98603.31;2073315;28;19925;-56
2023/03/04 05:05:30;;;;;;;;;;;;;;;15.75;57.92;98605.16;2073728;28;20371;-54
2023/03/04 05:06:31;;;;;;;;;;;;;;;15.74;58.01;98606.19;2074943;28;19925;-55
2023/03/04 05:07:32;;;;;;;;;;;;;;;15.75;58.00;98607.84;2074268;28;19933;-54
2023/03/04 05:08:34;;;;;;;;;;;;;;;15.73;57.84;98599.16;2074505;28;19933;-53
2023/03/04 05:09:34;;;;;;;;;;;;;;;15.74;57.90;98605.34;2074412;28;19929;-54
2023/03/04 05:10:36;;;;;;;;;;;;;;;15.73;57.88;98604.50;2074251;28;19925;-52
2023/03/04 05:11:37;;;;;;;;;;;;;;;15.71;57.93;98603.88;2074137;28;19939;-54
2023/03/04 05:12:38;;;;;;;;;;;;;;;15.73;57.83;98607.19;2073022;28;19956;-56
2023/03/04 05:13:39;;;;;;;;;;;;;;;15.74;58.07;98600.84;2074198;28;21522;-54
2023/03/04 05:14:42;;;;;;;;;;;;;;;15.72;57.93;98602.84;2074165;28;19991;-54
2023/03/04 05:15:42;;;;;;;;;;;;;;;15.72;58.00;98605.53;2072075;28;20684;-52
2023/03/04 05:16:44;;;;;;;;;;;;;;;15.72;58.01;98607.38;2070475;28;19996;-51
2023/03/04 05:17:44;;;;;;;;;;;;;;;15.71;57.88;98605.69;2063816;28;19933;-53
2023/03/04 05:18:46;;;;;;;;;;;;;;;15.69;57.96;98599.75;2065905;28;22511;-52
2023/03/04 05:19:46;;;;;;;;;;;;;;;15.69;57.95;98600.56;2074346;28;19931;-56